sensor_id;sensor_type;location;lat;lon;timestamp;temperature;humidity
27368;DHT22;14839;48.106;11.618;2024-02-23T05:02:13;6.40;94.60
27368;DHT22;14839;48.106;11.618;2024-02-23T05:04:40;6.40;94.60
27368;DHT22;14839;48.106;11.618;2024-02-23T05:07:05;6.40;94.60
27368;DHT22;14839;48.106;11.618;2024-02-23T05:09:31;6.40;94.60
27368;DHT22;14839;48.106;11.618;2024-02-23T05:11:57;6.30;94.60
27368;DHT22;14839;48.106;11.618;2024-02-23T05:14:23;6.20;94.60
27368;DHT22;14839;48.106;11.618;2024-02-23T05:16:48;6.20;94.60
27368;DHT22;14839;48.106;11.618;2024-02-23T05:19:14;6.30;94.60
27368;DHT22;14839;48.106;11.618;2024-02-23T05:21:39;6.30;94.60
27368;DHT22;14839;48.106;11.618;2024-02-23T05:24:05;6.30;94.60
27368;DHT22;14839;48.106;11.618;2024-02-23T05:26:31;6.40;94.60
27368;DHT22;14839;48.106;11.618;2024-02-23T05:28:57;6.40;94.60
27368;DHT22;14839;48.106;11.618;2024-02-23T05:31:46;6.30;94.60
27368;DHT22;14839;48.106;11.618;2024-02-23T05:34:12;6.20;94.60
27368;DHT22;14839;48.106;11.618;2024-02-23T05:36:38;6.20;94.60
27368;DHT22;14839;48.106;11.618;2024-02-23T05:39:04;6.20;94.60
27368;DHT22;14839;48.106;11.618;2024-02-23T05:41:30;6.20;94.60
27368;DHT22;14839;48.106;11.618;2024-02-23T05:43:55;6.20;94.60
27368;DHT22;14839;48.106;11.618;2024-02-23T05:46:21;6.20;94.60
27368;DHT22;14839;48.106;11.618;2024-02-23T05:48:46;6.20;94.60
27368;DHT22;14839;48.106;11.618;2024-02-23T05:51:12;6.20;94.60
27368;DHT22;14839;48.106;11.618;2024-02-23T05:53:37;6.10;94.60
27368;DHT22;14839;48.106;11.618;2024-02-23T05:56:03;6.10;94.60
27368;DHT22;14839;48.106;11.618;2024-02-23T05:58:29;6.10;94.60
27368;DHT22;14839;48.106;11.618;2024-02-23T06:00:55;6.00;94.60
27368;DHT22;14839;48.106;11.618;2024-02-23T06:03:20;6.00;94.60
27368;DHT22;14839;48.106;11.618;2024-02-23T06:05:46;5.90;94.60
27368;DHT22;14839;48.106;11.618;2024-02-23T06:08:11;5.90;94.60
27368;DHT22;14839;48.106;11.618;2024-02-23T06:10:37;5.90;94.60
27368;DHT22;14839;48.106;11.618;2024-02-23T06:13:03;5.90;94.60
27368;DHT22;14839;48.106;11.618;2024-02-23T06:15:29;5.90;94.60
27368;DHT22;14839;48.106;11.618;2024-02-23T06:17:54;5.90;94.60
27368;DHT22;14839;48.106;11.618;2024-02-23T06:20:20;6.00;94.60
27368;DHT22;14839;48.106;11.618;2024-02-23T06:22:45;6.00;94.60
27368;DHT22;14839;48.106;11.618;2024-02-23T06:25:11;5.90;94.60
27368;DHT22;14839;48.106;11.618;2024-02-23T06:27:37;5.90;94.60
27368;DHT22;14839;48.106;11.618;2024-02-23T06:30:04;5.90;94.60
27368;DHT22;14839;48.106;11.618;2024-02-23T06:32:30;5.90;94.60
27368;DHT22;14839;48.106;11.618;2024-02-23T06:34:58;5.80;94.60
27368;DHT22;14839;48.106;11.618;2024-02-23T06:37:24;5.90;94.60
27368;DHT22;14839;48.106;11.618;2024-02-23T06:39:49;5.90;94.60
27368;DHT22;14839;48.106;11.618;2024-02-23T06:42:20;5.80;94.60
27368;DHT22;14839;48.106;11.618;2024-02-23T06:44:49;5.90;94.60
27368;DHT22;14839;48.106;11.618;2024-02-23T06:47:15;6.00;94.60
27368;DHT22;14839;48.106;11.618;2024-02-23T06:49:44;6.00;94.60
27368;DHT22;14839;48.106;11.618;2024-02-23T06:52:10;6.10;94.60
27368;DHT22;14839;48.106;11.618;2024-02-23T06:54:36;6.00;94.60
27368;DHT22;14839;48.106;11.618;2024-02-23T06:57:02;6.10;94.60
27368;DHT22;14839;48.106;11.618;2024-02-23T06:59:28;6.20;94.60
27368;DHT22;14839;48.106;11.618;2024-02-23T07:01:54;6.10;94.60
27368;DHT22;14839;48.106;11.618;2024-02-23T07:04:20;6.10;94.60
27368;DHT22;14839;48.106;11.618;2024-02-23T07:06:46;6.10;94.60
27368;DHT22;14839;48.106;11.618;2024-02-23T07:09:12;6.10;94.60
27368;DHT22;14839;48.106;11.618;2024-02-23T07:11:38;6.20;94.60
27368;DHT22;14839;48.106;11.618;2024-02-23T07:14:04;6.20;94.60
27368;DHT22;14839;48.106;11.618;2024-02-23T07:16:30;6.30;94.60
27368;DHT22;14839;48.106;11.618;2024-02-23T07:18:59;6.40;94.60
27368;DHT22;14839;48.106;11.618;2024-02-23T07:21:24;6.40;94.60
27368;DHT22;14839;48.106;11.618;2024-02-23T07:23:51;6.40;94.60
27368;DHT22;14839;48.106;11.618;2024-02-23T07:26:16;6.50;94.60
27368;DHT22;14839;48.106;11.618;2024-02-23T07:28:42;6.50;94.60
27368;DHT22;14839;48.106;11.618;2024-02-23T07:31:07;6.40;94.60
27368;DHT22;14839;48.106;11.618;2024-02-23T07:33:33;6.40;94.60
27368;DHT22;14839;48.106;11.618;2024-02-23T07:36:02;6.50;94.60
27368;DHT22;14839;48.106;11.618;2024-02-23T07:38:28;6.40;94.60
27368;DHT22;14839;48.106;11.618;2024-02-23T07:40:54;6.40;94.60
27368;DHT22;14839;48.106;11.618;2024-02-23T07:43:20;6.20;94.60
27368;DHT22;14839;48.106;11.618;2024-02-23T07:45:46;6.10;94.60
27368;DHT22;14839;48.106;11.618;2024-02-23T07:48:11;6.10;94.60
27368;DHT22;14839;48.106;11.618;2024-02-23T07:50:37;6.10;94.60
27368;DHT22;14839;48.106;11.618;2024-02-23T07:53:03;6.10;94.60
27368;DHT22;14839;48.106;11.618;2024-02-23T07:55:29;6.20;94.60
27368;DHT22;14839;48.106;11.618;2024-02-23T07:57:55;6.40;94.60
27368;DHT22;14839;48.106;11.618;2024-02-23T08:00:26;6.50;94.60
27368;DHT22;14839;48.106;11.618;2024-02-23T08:02:52;6.60;94.60
27368;DHT22;14839;48.106;11.618;2024-02-23T08:05:17;6.70;94.60
27368;DHT22;14839;48.106;11.618;2024-02-23T08:07:44;6.70;94.60
27368;DHT22;14839;48.106;11.618;2024-02-23T08:10:10;6.90;94.60
27368;DHT22;14839;48.106;11.618;2024-02-23T08:12:37;6.90;94.60
27368;DHT22;14839;48.106;11.618;2024-02-23T08:15:02;7.10;94.60
27368;DHT22;14839;48.106;11.618;2024-02-23T08:17:29;7.30;94.60
27368;DHT22;14839;48.106;11.618;2024-02-23T08:19:54;7.50;94.60
27368;DHT22;14839;48.106;11.618;2024-02-23T08:22:20;7.50;94.60
27368;DHT22;14839;48.106;11.618;2024-02-23T08:24:45;7.60;94.60
27368;DHT22;14839;48.106;11.618;2024-02-23T08:27:11;7.40;94.60
27368;DHT22;14839;48.106;11.618;2024-02-23T08:29:39;7.60;94.60
27368;DHT22;14839;48.106;11.618;2024-02-23T08:32:05;7.90;94.50
27368;DHT22;14839;48.106;11.618;2024-02-23T08:34:31;7.90;93.80
27368;DHT22;14839;48.106;11.618;2024-02-23T08:36:57;7.90;93.30
27368;DHT22;14839;48.106;11.618;2024-02-23T08:39:22;7.90;93.20
27368;DHT22;14839;48.106;11.618;2024-02-23T08:41:48;7.80;93.60
27368;DHT22;14839;48.106;11.618;2024-02-23T08:44:13;7.80;93.90
27368;DHT22;14839;48.106;11.618;2024-02-23T08:46:39;7.90;93.70
27368;DHT22;14839;48.106;11.618;2024-02-23T08:49:05;7.60;94.20
27368;DHT22;14839;48.106;11.618;2024-02-23T08:51:31;7.40;94.10
27368;DHT22;14839;48.106;11.618;2024-02-23T08:53:56;7.40;94.60
27368;DHT22;14839;48.106;11.618;2024-02-23T08:56:22;7.50;94.60
27368;DHT22;14839;48.106;11.618;2024-02-23T08:58:48;7.60;94.10
27368;DHT22;14839;48.106;11.618;2024-02-23T09:01:14;7.50;94.60
27368;DHT22;14839;48.106;11.618;2024-02-23T09:03:39;7.40;94.60
27368;DHT22;14839;48.106;11.618;2024-02-23T09:06:05;7.60;94.40
27368;DHT22;14839;48.106;11.618;2024-02-23T09:08:30;7.50;94.10
27368;DHT22;14839;48.106;11.618;2024-02-23T09:10:56;7.60;94.10
27368;DHT22;14839;48.106;11.618;2024-02-23T09:13:21;7.70;93.60
27368;DHT22;14839;48.106;11.618;2024-02-23T09:15:47;7.80;93.40
27368;DHT22;14839;48.106;11.618;2024-02-23T09:18:13;7.80;93.00
27368;DHT22;14839;48.106;11.618;2024-02-23T09:20:38;7.50;93.60
27368;DHT22;14839;48.106;11.618;2024-02-23T09:23:04;7.40;94.00
27368;DHT22;14839;48.106;11.618;2024-02-23T09:25:29;7.30;94.10
27368;DHT22;14839;48.106;11.618;2024-02-23T09:27:58;7.30;94.60
27368;DHT22;14839;48.106;11.618;2024-02-23T09:30:24;7.20;94.60
27368;DHT22;14839;48.106;11.618;2024-02-23T09:32:49;7.20;94.60
27368;DHT22;14839;48.106;11.618;2024-02-23T09:35:15;7.20;94.60
27368;DHT22;14839;48.106;11.618;2024-02-23T09:37:40;7.20;94.60
27368;DHT22;14839;48.106;11.618;2024-02-23T09:40:07;7.20;94.60
27368;DHT22;14839;48.106;11.618;2024-02-23T09:42:33;7.20;94.60
27368;DHT22;14839;48.106;11.618;2024-02-23T09:45:00;7.20;94.60
27368;DHT22;14839;48.106;11.618;2024-02-23T09:47:27;7.20;94.60
27368;DHT22;14839;48.106;11.618;2024-02-23T09:49:54;7.30;94.60
27368;DHT22;14839;48.106;11.618;2024-02-23T09:52:21;7.30;93.70
27368;DHT22;14839;48.106;11.618;2024-02-23T09:54:47;7.20;94.10
27368;DHT22;14839;48.106;11.618;2024-02-23T09:57:13;7.20;94.40
27368;DHT22;14839;48.106;11.618;2024-02-23T09:59:39;7.40;93.80
27368;DHT22;14839;48.106;11.618;2024-02-23T10:02:08;7.40;93.70
27368;DHT22;14839;48.106;11.618;2024-02-23T10:04:36;7.50;92.80
27368;DHT22;14839;48.106;11.618;2024-02-23T10:07:01;7.60;92.80
27368;DHT22;14839;48.106;11.618;2024-02-23T10:09:29;7.50;92.90
27368;DHT22;14839;48.106;11.618;2024-02-23T10:11:55;7.20;93.60
27368;DHT22;14839;48.106;11.618;2024-02-23T10:14:21;7.20;94.60
27368;DHT22;14839;48.106;11.618;2024-02-23T10:16:47;7.20;94.40
27368;DHT22;14839;48.106;11.618;2024-02-23T10:19:13;7.10;94.20
27368;DHT22;14839;48.106;11.618;2024-02-23T10:21:38;7.10;94.20
27368;DHT22;14839;48.106;11.618;2024-02-23T10:24:05;7.10;94.60
27368;DHT22;14839;48.106;11.618;2024-02-23T10:26:31;7.00;94.60
27368;DHT22;14839;48.106;11.618;2024-02-23T10:28:57;6.90;94.60
27368;DHT22;14839;48.106;11.618;2024-02-23T10:31:24;7.00;94.60
27368;DHT22;14839;48.106;11.618;2024-02-23T10:33:51;7.00;94.60
27368;DHT22;14839;48.106;11.618;2024-02-23T10:36:18;7.10;94.60
27368;DHT22;14839;48.106;11.618;2024-02-23T10:38:48;7.20;94.60
27368;DHT22;14839;48.106;11.618;2024-02-23T10:41:14;7.20;94.20
27368;DHT22;14839;48.106;11.618;2024-02-23T10:43:43;7.30;94.00
27368;DHT22;14839;48.106;11.618;2024-02-23T10:46:11;7.30;93.70
27368;DHT22;14839;48.106;11.618;2024-02-23T10:48:40;7.30;94.40
27368;DHT22;14839;48.106;11.618;2024-02-23T10:51:06;7.20;93.80
27368;DHT22;14839;48.106;11.618;2024-02-23T10:53:33;7.10;93.10
27368;DHT22;14839;48.106;11.618;2024-02-23T10:56:00;7.10;93.70
27368;DHT22;14839;48.106;11.618;2024-02-23T10:58:26;7.10;93.70
27368;DHT22;14839;48.106;11.618;2024-02-23T11:00:53;7.20;93.70
27368;DHT22;14839;48.106;11.618;2024-02-23T11:03:23;7.30;93.20
27368;DHT22;14839;48.106;11.618;2024-02-23T11:05:49;7.10;93.90
27368;DHT22;14839;48.106;11.618;2024-02-23T11:08:17;7.00;94.60
27368;DHT22;14839;48.106;11.618;2024-02-23T11:10:50;7.00;94.60
27368;DHT22;14839;48.106;11.618;2024-02-23T11:13:17;7.20;93.30
27368;DHT22;14839;48.106;11.618;2024-02-23T11:15:43;7.20;93.30
27368;DHT22;14839;48.106;11.618;2024-02-23T11:18:22;7.30;93.70
27368;DHT22;14839;48.106;11.618;2024-02-23T11:20:54;7.00;93.40
27368;DHT22;14839;48.106;11.618;2024-02-23T11:23:20;6.90;94.00
27368;DHT22;14839;48.106;11.618;2024-02-23T11:26:04;7.00;93.30
27368;DHT22;14839;48.106;11.618;2024-02-23T11:28:30;7.10;93.30
27368;DHT22;14839;48.106;11.618;2024-02-23T11:30:56;7.20;93.10
27368;DHT22;14839;48.106;11.618;2024-02-23T11:33:28;7.20;92.30
27368;DHT22;14839;48.106;11.618;2024-02-23T11:36:05;7.40;91.50
27368;DHT22;14839;48.106;11.618;2024-02-23T11:38:32;7.40;91.80
27368;DHT22;14839;48.106;11.618;2024-02-23T11:40:58;7.50;91.60
27368;DHT22;14839;48.106;11.618;2024-02-23T11:43:24;7.40;91.50
27368;DHT22;14839;48.106;11.618;2024-02-23T11:45:50;7.30;91.60
27368;DHT22;14839;48.106;11.618;2024-02-23T11:48:16;7.30;91.30
27368;DHT22;14839;48.106;11.618;2024-02-23T11:50:42;7.40;91.50
27368;DHT22;14839;48.106;11.618;2024-02-23T11:53:08;7.20;91.40
27368;DHT22;14839;48.106;11.618;2024-02-23T11:55:34;7.20;91.30
27368;DHT22;14839;48.106;11.618;2024-02-23T11:58:00;7.10;91.30
27368;DHT22;14839;48.106;11.618;2024-02-23T12:00:26;7.20;90.30
27368;DHT22;14839;48.106;11.618;2024-02-23T12:02:52;7.10;90.60
27368;DHT22;14839;48.106;11.618;2024-02-23T12:05:17;7.00;90.70
27368;DHT22;14839;48.106;11.618;2024-02-23T12:07:43;7.10;90.50
27368;DHT22;14839;48.106;11.618;2024-02-23T12:10:09;7.00;91.30
27368;DHT22;14839;48.106;11.618;2024-02-23T12:12:36;6.80;91.00
27368;DHT22;14839;48.106;11.618;2024-02-23T12:15:02;6.60;91.70
27368;DHT22;14839;48.106;11.618;2024-02-23T12:17:28;6.60;91.70
27368;DHT22;14839;48.106;11.618;2024-02-23T12:20:01;6.80;91.60
27368;DHT22;14839;48.106;11.618;2024-02-23T12:22:27;6.70;91.10
27368;DHT22;14839;48.106;11.618;2024-02-23T12:24:52;6.70;90.40
27368;DHT22;14839;48.106;11.618;2024-02-23T12:27:19;6.70;91.00
27368;DHT22;14839;48.106;11.618;2024-02-23T12:30:03;6.60;90.40
27368;DHT22;14839;48.106;11.618;2024-02-23T12:32:29;6.60;90.70
27368;DHT22;14839;48.106;11.618;2024-02-23T12:34:55;6.90;90.10
27368;DHT22;14839;48.106;11.618;2024-02-23T12:37:23;6.90;89.90
27368;DHT22;14839;48.106;11.618;2024-02-23T12:39:49;7.00;89.00
27368;DHT22;14839;48.106;11.618;2024-02-23T12:42:14;7.10;88.40
27368;DHT22;14839;48.106;11.618;2024-02-23T12:44:40;7.10;88.60
27368;DHT22;14839;48.106;11.618;2024-02-23T12:47:08;7.10;88.70
27368;DHT22;14839;48.106;11.618;2024-02-23T12:49:34;7.20;88.10
27368;DHT22;14839;48.106;11.618;2024-02-23T12:52:00;7.10;87.50
27368;DHT22;14839;48.106;11.618;2024-02-23T12:54:26;7.10;88.30
27368;DHT22;14839;48.106;11.618;2024-02-23T12:56:51;7.10;87.80
27368;DHT22;14839;48.106;11.618;2024-02-23T12:59:17;7.00;87.50
27368;DHT22;14839;48.106;11.618;2024-02-23T13:01:43;7.00;87.70
27368;DHT22;14839;48.106;11.618;2024-02-23T13:04:08;6.90;89.60
27368;DHT22;14839;48.106;11.618;2024-02-23T13:06:39;7.00;89.60
27368;DHT22;14839;48.106;11.618;2024-02-23T13:09:05;7.00;89.50
27368;DHT22;14839;48.106;11.618;2024-02-23T13:11:33;7.10;90.30
27368;DHT22;14839;48.106;11.618;2024-02-23T13:13:59;7.10;89.90
27368;DHT22;14839;48.106;11.618;2024-02-23T13:16:25;7.00;88.40
27368;DHT22;14839;48.106;11.618;2024-02-23T13:18:51;7.10;87.70
27368;DHT22;14839;48.106;11.618;2024-02-23T13:21:17;6.90;87.70
27368;DHT22;14839;48.106;11.618;2024-02-23T13:23:44;6.80;89.20
27368;DHT22;14839;48.106;11.618;2024-02-23T13:26:12;6.80;89.50
27368;DHT22;14839;48.106;11.618;2024-02-23T13:28:43;7.00;89.00
27368;DHT22;14839;48.106;11.618;2024-02-23T13:31:09;7.00;88.60
27368;DHT22;14839;48.106;11.618;2024-02-23T13:33:35;6.90;87.20
27368;DHT22;14839;48.106;11.618;2024-02-23T13:36:01;6.90;88.10
27368;DHT22;14839;48.106;11.618;2024-02-23T13:38:26;6.90;88.40
27368;DHT22;14839;48.106;11.618;2024-02-23T13:40:52;6.90;88.70
27368;DHT22;14839;48.106;11.618;2024-02-23T13:43:17;6.80;88.60
27368;DHT22;14839;48.106;11.618;2024-02-23T13:45:51;6.90;88.70
27368;DHT22;14839;48.106;11.618;2024-02-23T13:48:17;7.00;87.50
27368;DHT22;14839;48.106;11.618;2024-02-23T13:50:46;7.00;86.90
27368;DHT22;14839;48.106;11.618;2024-02-23T13:53:12;7.00;86.90
27368;DHT22;14839;48.106;11.618;2024-02-23T13:55:39;6.90;86.90
27368;DHT22;14839;48.106;11.618;2024-02-23T13:58:05;7.00;86.60
27368;DHT22;14839;48.106;11.618;2024-02-23T14:00:30;6.80;87.20
27368;DHT22;14839;48.106;11.618;2024-02-23T14:02:56;6.60;88.90
27368;DHT22;14839;48.106;11.618;2024-02-23T14:05:22;6.80;88.70
27368;DHT22;14839;48.106;11.618;2024-02-23T14:07:50;6.70;88.60
27368;DHT22;14839;48.106;11.618;2024-02-23T14:10:16;6.80;88.10
27368;DHT22;14839;48.106;11.618;2024-02-23T14:12:42;6.80;86.60
27368;DHT22;14839;48.106;11.618;2024-02-23T14:15:08;6.60;87.70
27368;DHT22;14839;48.106;11.618;2024-02-23T14:17:34;6.70;88.40
27368;DHT22;14839;48.106;11.618;2024-02-23T14:20:00;6.70;88.00
27368;DHT22;14839;48.106;11.618;2024-02-23T14:22:26;6.50;87.20
27368;DHT22;14839;48.106;11.618;2024-02-23T14:24:53;6.40;88.30
27368;DHT22;14839;48.106;11.618;2024-02-23T14:27:19;6.30;88.60
27368;DHT22;14839;48.106;11.618;2024-02-23T14:29:45;6.20;89.80
27368;DHT22;14839;48.106;11.618;2024-02-23T14:32:16;6.20;90.10
27368;DHT22;14839;48.106;11.618;2024-02-23T14:34:42;6.10;90.10
27368;DHT22;14839;48.106;11.618;2024-02-23T14:37:07;6.20;90.20
27368;DHT22;14839;48.106;11.618;2024-02-23T14:39:33;6.10;90.20
27368;DHT22;14839;48.106;11.618;2024-02-23T14:42:00;6.20;90.30
27368;DHT22;14839;48.106;11.618;2024-02-23T14:44:25;6.20;90.80
27368;DHT22;14839;48.106;11.618;2024-02-23T14:46:52;6.00;90.70
27368;DHT22;14839;48.106;11.618;2024-02-23T14:49:17;5.90;91.30
27368;DHT22;14839;48.106;11.618;2024-02-23T14:51:43;5.90;91.70
27368;DHT22;14839;48.106;11.618;2024-02-23T14:54:14;5.90;91.70
27368;DHT22;14839;48.106;11.618;2024-02-23T14:56:40;5.80;91.70
27368;DHT22;14839;48.106;11.618;2024-02-23T14:59:08;5.80;92.20
27368;DHT22;14839;48.106;11.618;2024-02-23T15:01:37;5.80;92.70
27368;DHT22;14839;48.106;11.618;2024-02-23T15:04:04;5.70;92.60
27368;DHT22;14839;48.106;11.618;2024-02-23T15:06:30;5.70;92.80
27368;DHT22;14839;48.106;11.618;2024-02-23T15:08:55;5.80;92.50
27368;DHT22;14839;48.106;11.618;2024-02-23T15:11:21;5.80;92.50
27368;DHT22;14839;48.106;11.618;2024-02-23T15:13:47;5.80;92.30
27368;DHT22;14839;48.106;11.618;2024-02-23T15:16:12;5.70;92.60
27368;DHT22;14839;48.106;11.618;2024-02-23T15:18:38;5.70;92.60
27368;DHT22;14839;48.106;11.618;2024-02-23T15:21:04;5.70;92.50
27368;DHT22;14839;48.106;11.618;2024-02-23T15:23:29;5.60;92.40
27368;DHT22;14839;48.106;11.618;2024-02-23T15:25:55;5.60;92.80
27368;DHT22;14839;48.106;11.618;2024-02-23T15:28:21;5.60;92.90
27368;DHT22;14839;48.106;11.618;2024-02-23T15:30:51;5.60;93.00
27368;DHT22;14839;48.106;11.618;2024-02-23T15:33:17;5.60;93.30
27368;DHT22;14839;48.106;11.618;2024-02-23T15:35:43;5.60;93.60
27368;DHT22;14839;48.106;11.618;2024-02-23T15:38:09;5.40;93.20
27368;DHT22;14839;48.106;11.618;2024-02-23T15:40:34;5.30;93.80
27368;DHT22;14839;48.106;11.618;2024-02-23T15:43:00;5.30;93.90
27368;DHT22;14839;48.106;11.618;2024-02-23T15:45:26;5.40;93.80
27368;DHT22;14839;48.106;11.618;2024-02-23T15:47:51;5.40;93.60
27368;DHT22;14839;48.106;11.618;2024-02-23T15:50:17;5.30;93.70
27368;DHT22;14839;48.106;11.618;2024-02-23T15:52:44;5.30;94.50
27368;DHT22;14839;48.106;11.618;2024-02-23T15:55:10;5.30;94.50
27368;DHT22;14839;48.106;11.618;2024-02-23T15:57:38;5.30;94.10
27368;DHT22;14839;48.106;11.618;2024-02-23T16:00:05;5.30;94.40
27368;DHT22;14839;48.106;11.618;2024-02-23T16:02:31;5.20;94.60
27368;DHT22;14839;48.106;11.618;2024-02-23T16:04:56;5.20;94.50
27368;DHT22;14839;48.106;11.618;2024-02-23T16:07:22;5.10;94.50
27368;DHT22;14839;48.106;11.618;2024-02-23T16:09:48;5.10;94.50
27368;DHT22;14839;48.106;11.618;2024-02-23T16:12:13;5.00;94.60
27368;DHT22;14839;48.106;11.618;2024-02-23T16:14:39;5.10;94.60
27368;DHT22;14839;48.106;11.618;2024-02-23T16:17:04;5.10;94.60
27368;DHT22;14839;48.106;11.618;2024-02-23T16:19:30;5.00;94.60
27368;DHT22;14839;48.106;11.618;2024-02-23T16:21:56;4.90;94.60
27368;DHT22;14839;48.106;11.618;2024-02-23T16:24:22;5.00;94.60
27368;DHT22;14839;48.106;11.618;2024-02-23T16:26:47;5.00;94.60
27368;DHT22;14839;48.106;11.618;2024-02-23T16:29:13;4.90;94.60
27368;DHT22;14839;48.106;11.618;2024-02-23T16:31:38;4.90;94.60
27368;DHT22;14839;48.106;11.618;2024-02-23T16:34:07;4.80;94.60
27368;DHT22;14839;48.106;11.618;2024-02-23T16:36:33;4.80;94.60
27368;DHT22;14839;48.106;11.618;2024-02-23T16:38:58;4.80;94.60
27368;DHT22;14839;48.106;11.618;2024-02-23T16:41:24;4.80;94.60
27368;DHT22;14839;48.106;11.618;2024-02-23T16:43:50;4.80;94.60
27368;DHT22;14839;48.106;11.618;2024-02-23T16:46:15;4.70;94.60
27368;DHT22;14839;48.106;11.618;2024-02-23T16:48:41;4.70;94.60
27368;DHT22;14839;48.106;11.618;2024-02-23T16:51:07;4.70;94.60
27368;DHT22;14839;48.106;11.618;2024-02-23T16:53:32;4.80;94.60
27368;DHT22;14839;48.106;11.618;2024-02-23T16:55:58;4.70;94.60
27368;DHT22;14839;48.106;11.618;2024-02-23T16:58:27;4.60;94.60
27368;DHT22;14839;48.106;11.618;2024-02-23T17:00:59;4.60;94.60
27368;DHT22;14839;48.106;11.618;2024-02-23T17:03:26;4.70;94.60
27368;DHT22;14839;48.106;11.618;2024-02-23T17:05:51;4.70;94.60
27368;DHT22;14839;48.106;11.618;2024-02-23T17:08:20;4.70;94.60
27368;DHT22;14839;48.106;11.618;2024-02-23T17:10:45;4.70;94.60
27368;DHT22;14839;48.106;11.618;2024-02-23T17:13:11;4.60;94.60
27368;DHT22;14839;48.106;11.618;2024-02-23T17:15:36;4.60;94.60
27368;DHT22;14839;48.106;11.618;2024-02-23T17:18:03;4.60;94.60
27368;DHT22;14839;48.106;11.618;2024-02-23T17:20:29;4.50;94.60
27368;DHT22;14839;48.106;11.618;2024-02-23T17:22:56;4.60;94.60
27368;DHT22;14839;48.106;11.618;2024-02-23T17:25:21;4.60;94.60
27368;DHT22;14839;48.106;11.618;2024-02-23T17:27:47;4.50;94.60
27368;DHT22;14839;48.106;11.618;2024-02-23T17:30:15;4.50;94.60
27368;DHT22;14839;48.106;11.618;2024-02-23T17:32:40;4.50;94.60
27368;DHT22;14839;48.106;11.618;2024-02-23T17:35:06;4.50;94.60
27368;DHT22;14839;48.106;11.618;2024-02-23T17:37:32;4.50;94.60
27368;DHT22;14839;48.106;11.618;2024-02-23T17:39:57;4.50;94.60
27368;DHT22;14839;48.106;11.618;2024-02-23T17:42:23;4.50;94.60
27368;DHT22;14839;48.106;11.618;2024-02-23T17:44:48;4.50;94.60
27368;DHT22;14839;48.106;11.618;2024-02-23T17:47:14;4.50;94.60
27368;DHT22;14839;48.106;11.618;2024-02-23T17:49:40;4.50;94.60
27368;DHT22;14839;48.106;11.618;2024-02-23T17:52:05;4.40;94.60
27368;DHT22;14839;48.106;11.618;2024-02-23T17:54:31;4.40;94.60
27368;DHT22;14839;48.106;11.618;2024-02-23T17:56:56;4.30;94.60
27368;DHT22;14839;48.106;11.618;2024-02-23T17:59:22;4.40;94.60
27368;DHT22;14839;48.106;11.618;2024-02-23T18:01:48;4.40;94.60
27368;DHT22;14839;48.106;11.618;2024-02-23T18:04:13;4.40;94.60
27368;DHT22;14839;48.106;11.618;2024-02-23T18:06:39;4.30;94.60
27368;DHT22;14839;48.106;11.618;2024-02-23T18:09:05;4.30;94.60
27368;DHT22;14839;48.106;11.618;2024-02-23T18:11:31;4.30;94.60
27368;DHT22;14839;48.106;11.618;2024-02-23T18:13:57;4.30;94.60
27368;DHT22;14839;48.106;11.618;2024-02-23T18:16:23;4.30;94.60
27368;DHT22;14839;48.106;11.618;2024-02-23T18:18:49;4.30;94.60
27368;DHT22;14839;48.106;11.618;2024-02-23T18:21:16;4.30;94.60
27368;DHT22;14839;48.106;11.618;2024-02-23T18:23:45;4.30;94.60
27368;DHT22;14839;48.106;11.618;2024-02-23T18:26:14;4.20;94.60
27368;DHT22;14839;48.106;11.618;2024-02-23T18:28:40;4.30;94.60
27368;DHT22;14839;48.106;11.618;2024-02-23T18:31:06;4.30;94.60
27368;DHT22;14839;48.106;11.618;2024-02-23T18:33:32;4.30;94.60
27368;DHT22;14839;48.106;11.618;2024-02-23T18:35:57;4.30;94.60
27368;DHT22;14839;48.106;11.618;2024-02-23T18:38:23;4.30;94.60
27368;DHT22;14839;48.106;11.618;2024-02-23T18:40:48;4.30;94.60
27368;DHT22;14839;48.106;11.618;2024-02-23T18:43:14;4.30;94.60
27368;DHT22;14839;48.106;11.618;2024-02-23T18:45:40;4.30;94.60
27368;DHT22;14839;48.106;11.618;2024-02-23T18:48:06;4.30;94.60
27368;DHT22;14839;48.106;11.618;2024-02-23T18:50:32;4.30;94.60
27368;DHT22;14839;48.106;11.618;2024-02-23T18:52:57;4.30;94.60
27368;DHT22;14839;48.106;11.618;2024-02-23T18:55:23;4.30;94.60
27368;DHT22;14839;48.106;11.618;2024-02-23T18:57:49;4.30;94.60
27368;DHT22;14839;48.106;11.618;2024-02-23T19:00:15;4.30;94.60
27368;DHT22;14839;48.106;11.618;2024-02-23T19:02:41;4.30;94.60
27368;DHT22;14839;48.106;11.618;2024-02-23T19:05:07;4.30;94.60
27368;DHT22;14839;48.106;11.618;2024-02-23T19:07:32;4.30;94.60
27368;DHT22;14839;48.106;11.618;2024-02-23T19:09:58;4.30;94.60
27368;DHT22;14839;48.106;11.618;2024-02-23T19:12:24;4.30;94.60
27368;DHT22;14839;48.106;11.618;2024-02-23T19:14:49;4.30;94.60
27368;DHT22;14839;48.106;11.618;2024-02-23T19:17:15;4.30;94.60
27368;DHT22;14839;48.106;11.618;2024-02-23T19:19:50;4.30;94.60
27368;DHT22;14839;48.106;11.618;2024-02-23T19:22:36;4.20;94.60
27368;DHT22;14839;48.106;11.618;2024-02-23T19:25:05;4.20;94.60
27368;DHT22;14839;48.106;11.618;2024-02-23T19:27:31;4.30;94.60
27368;DHT22;14839;48.106;11.618;2024-02-23T19:29:57;4.30;94.60
27368;DHT22;14839;48.106;11.618;2024-02-23T19:32:28;4.20;94.60
27368;DHT22;14839;48.106;11.618;2024-02-23T19:34:54;4.20;94.60
27368;DHT22;14839;48.106;11.618;2024-02-23T19:37:19;4.20;94.60
27368;DHT22;14839;48.106;11.618;2024-02-23T19:39:45;4.20;94.60
27368;DHT22;14839;48.106;11.618;2024-02-23T19:42:11;4.20;94.60
27368;DHT22;14839;48.106;11.618;2024-02-23T19:44:39;4.20;94.60
27368;DHT22;14839;48.106;11.618;2024-02-23T19:47:06;4.20;94.60
27368;DHT22;14839;48.106;11.618;2024-02-23T19:49:32;4.20;94.60
27368;DHT22;14839;48.106;11.618;2024-02-23T19:51:58;4.20;94.60
27368;DHT22;14839;48.106;11.618;2024-02-23T19:54:23;4.20;94.60
27368;DHT22;14839;48.106;11.618;2024-02-23T19:56:49;4.20;94.60
27368;DHT22;14839;48.106;11.618;2024-02-23T19:59:14;4.20;94.60
27368;DHT22;14839;48.106;11.618;2024-02-23T20:01:40;4.10;94.60
27368;DHT22;14839;48.106;11.618;2024-02-23T20:04:06;4.20;94.60
27368;DHT22;14839;48.106;11.618;2024-02-23T20:06:31;4.20;94.60
27368;DHT22;14839;48.106;11.618;2024-02-23T20:08:57;4.10;94.60
27368;DHT22;14839;48.106;11.618;2024-02-23T20:11:22;4.10;94.60
27368;DHT22;14839;48.106;11.618;2024-02-23T20:13:48;4.10;94.60
27368;DHT22;14839;48.106;11.618;2024-02-23T20:16:13;4.10;94.60
27368;DHT22;14839;48.106;11.618;2024-02-23T20:18:39;4.10;94.60
27368;DHT22;14839;48.106;11.618;2024-02-23T20:21:04;4.00;94.60
27368;DHT22;14839;48.106;11.618;2024-02-23T20:23:30;3.90;94.60
27368;DHT22;14839;48.106;11.618;2024-02-23T20:25:56;3.90;94.60